Karachi, Pakistan
Current Conditions -  °F | °C
As of 9:25 AM on Friday 21 Nov 2014 (Local Time) from OPKC Reporting Station
Haze Haze  
Wind Chill: 77°   Ceiling: Unl
Heat Index: 79°   Visibility: 1.2mi
Dew Point: 68°   Wind: 0mph
Humidity: 74%   Direction: NA
Pressure: 30"   Gusts: NA
Location:  24.86°N, 67.01°E
Report Text: OPKC 210425Z 00000KT 2000 BR NSC 25/20 Q1016 BECMG 3000
Loading
Personal Weather Stations






























Interactive Weather Map New forecast layout! Learn more

10-Day Weather Forecast

Advertisements
Track Severe Weather on mobile